Aviation Digital Data Service (ADDS)

Output produced by METARs form (0637 UTC 27 November 2014)
found at http://aviationweather.gov/adds/metars/
 
KDFW 270522Z 2706/2812 36008KT P6SM SKC 
     FM271600 07005KT P6SM SKC 
     FM272100 14008KT P6SM SKC